Latest Weather Observations for Dunalley

IDT60801

Issued at 10:01 pm EST Tuesday 1 September 2015 (issued every 30 minutes, with the page automatically refreshed every 10 minutes)

About weather observations | Map of weather stations | Latest weather observations for TAS | Other Formats
Station Details ID: 094254 Name: DUNALLEY (STROUD POINT) Lat: -42.90 Lon: 147.79 Height: 12.43 m
Data from the previous 72 hours. | See also: Recent months at Dunalley
Date/Time
EST
Temp
°C
App
Temp
°C
Dew
Point
Rel
Hum
%
Delta-T
°C
Wind Press
QNH
hPa
Press
MSL
hPa
Rain
since 9 am
mm
Dir
 
Spd
km/h
Gust
km/h
Spd
kts
Gust
kts
01/10:00pm 6.3 4.5 5.4 94 0.4 W 4 6 2 3 1014.4 1014.4 0.2
01/09:30pm 6.3 4.1 5.1 92 0.5 W 6 7 3 4 1014.4 1014.4 0.2
01/09:00pm 6.0 3.7 4.6 91 0.6 W 6 6 3 3 1014.3 1014.3 0.2
01/08:30pm 6.7 4.4 4.9 88 0.8 W 6 7 3 4 1014.2 1014.2 0.2
01/08:00pm 7.1 4.9 5.4 89 0.8 W 6 7 3 4 1014.0 1014.0 0.2
01/07:30pm 6.6 4.4 5.4 92 0.5 W 6 9 3 5 1013.8 1013.8 0.2
01/07:00pm 7.9 6.9 5.7 86 1.0 CALM 0 0 0 0 1013.7 1013.7 0.0
01/06:30pm 8.4 7.5 6.0 85 1.1 CALM 0 0 0 0 1013.7 1013.7 0.0
01/06:00pm 8.6 7.7 5.9 83 1.2 CALM 0 2 0 1 1013.6 1013.6 0.0
01/05:30pm 9.1 8.1 5.8 80 1.5 CALM 0 0 0 0 1013.5 1013.5 0.0
01/05:00pm 10.1 9.2 6.1 76 1.9 CALM 0 0 0 0 1013.6 1013.6 0.0
01/04:30pm 10.3 9.1 6.5 77 1.8 W 2 4 1 2 1013.5 1013.5 0.0
01/04:00pm 9.8 9.0 6.7 81 1.5 CALM 0 4 0 2 1013.9 1013.9 0.0
01/03:30pm 10.0 9.2 6.7 80 1.5 CALM 0 2 0 1 1014.1 1014.1 0.0
01/03:00pm 9.5 7.6 7.4 87 1.0 W 7 9 4 5 1014.2 1014.2 0.0
01/02:30pm 10.1 7.6 8.2 88 0.9 W 11 15 6 8 1014.3 1014.3 0.0
01/02:00pm 10.1 7.3 7.0 81 1.5 W 11 17 6 9 1014.5 1014.5 0.0
01/01:30pm 10.0 6.8 6.9 81 1.5 W 13 17 7 9 1014.7 1014.7 0.0
01/01:00pm 10.8 7.7 7.1 78 1.8 W 13 15 7 8 1014.8 1014.8 0.0
01/12:30pm 10.1 7.5 7.7 85 1.2 W 11 15 6 8 1015.2 1015.2 0.0
01/12:00pm 9.3 5.4 7.1 86 1.0 W 17 20 9 11 1015.6 1015.6 0.0
01/11:30am 9.9 5.6 7.2 83 1.3 W 19 20 10 11 1015.8 1015.8 0.0
01/11:00am 9.6 6.1 7.2 85 1.1 W 15 20 8 11 1015.9 1015.9 0.0
01/10:30am 8.6 4.7 6.9 89 0.8 W 17 19 9 10 1016.1 1016.1 0.0
01/10:00am 8.5 4.2 7.1 91 0.7 W 19 22 10 12 1016.3 1016.3 0.0
01/09:30am 8.0 3.7 7.1 94 0.4 W 19 24 10 13 1016.4 1016.5 0.0
01/09:00am 8.0 3.2 7.2 95 0.4 W 22 26 12 14 1016.5 1016.6 4.2
01/08:30am 7.9 3.7 7.3 96 0.3 W 19 22 10 12 1016.6 1016.7 4.2
01/08:00am 7.3 2.8 6.9 97 0.2 W 20 22 11 12 1016.5 1016.6 4.2
01/07:30am 7.4 2.9 7.0 97 0.2 W 20 24 11 13 1016.5 1016.6 4.2
01/07:00am 7.3 2.4 6.9 97 0.2 W 22 26 12 14 1016.5 1016.6 4.0
01/06:30am 7.4 2.9 7.0 97 0.2 WSW 20 24 11 13 1016.3 1016.4 3.8
01/06:00am 7.5 2.6 7.1 97 0.2 WSW 22 26 12 14 1016.2 1016.3 3.6
01/05:30am 7.8 3.4 7.4 97 0.2 WSW 20 24 11 13 1016.1 1016.2 3.4
01/05:00am 7.9 3.7 7.3 96 0.3 WSW 19 22 10 12 1016.1 1016.2 3.2
01/04:30am 8.1 4.2 7.3 95 0.4 WSW 17 20 9 11 1016.1 1016.2 3.2
01/04:00am 8.2 6.2 7.3 94 0.4 WSW 7 11 4 6 1016.3 1016.4 3.2
01/03:30am 8.3 5.2 7.2 93 0.5 WSW 13 15 7 8 1016.4 1016.5 3.2
01/03:00am 8.1 5.7 7.2 94 0.4 WSW 9 11 5 6 1016.5 1016.6 3.2
01/02:30am 8.0 5.6 7.2 95 0.4 WSW 9 11 5 6 1016.8 1016.9 3.2
01/02:00am 7.9 5.9 7.1 95 0.4 WSW 7 9 4 5 1017.1 1017.2 3.2
01/01:30am 7.8 5.4 7.1 95 0.3 WSW 9 11 5 6 1017.5 1017.6 3.2
01/01:00am 8.0 5.6 7.2 95 0.4 WSW 9 15 5 8 1017.7 1017.8 3.2
01/12:30am 7.2 5.0 6.3 94 0.4 WSW 7 9 4 5 1017.9 1018.0 3.2
01/12:00am 7.5 6.7 6.3 92 0.5 CALM 0 0 0 0 1018.0 1018.1 3.2
 
Date/Time
EST
Temp
°C
App
Temp
°C
Dew
Point
Rel
Hum
%
Delta-T
°C
Wind Press
QNH
hPa
Press
MSL
hPa
Rain
since 9 am
mm
Dir
 
Spd
km/h
Gust
km/h
Spd
kts
Gust
kts
31/11:30pm 7.3 5.6 6.1 92 0.5 WSW 4 6 2 3 1018.0 1018.1 3.2
31/11:00pm 7.8 5.2 6.3 90 0.7 WSW 9 13 5 7 1018.3 1018.4 3.2
31/10:30pm 7.6 5.6 6.1 90 0.7 WSW 6 7 3 4 1018.5 1018.6 3.2
31/10:00pm 7.6 5.6 6.2 91 0.6 WSW 6 7 3 4 1018.8 1018.9 3.2
31/09:30pm 7.2 5.9 6.0 92 0.5 WSW 2 6 1 3 1018.9 1019.0 3.2
31/09:00pm 7.5 6.7 6.6 94 0.4 CALM 0 0 0 0 1019.0 1019.1 3.0
31/08:30pm 7.7 7.0 7.0 95 0.3 CALM 0 0 0 0 1018.9 1019.0 3.0
31/08:00pm 8.1 7.1 7.5 96 0.3 WSW 2 4 1 2 1018.9 1019.0 3.0
31/07:30pm 8.5 7.3 7.9 96 0.3 WSW 4 4 2 2 1018.9 1019.0 3.0
31/07:00pm 8.7 7.6 8.3 97 0.2 WSW 4 6 2 3 1018.7 1018.8 3.0
31/06:30pm 8.7 7.6 8.3 97 0.2 WSW 4 6 2 3 1018.8 1018.9 3.0
31/06:00pm 8.8 7.1 8.4 97 0.2 WSW 7 7 4 4 1018.8 1018.9 3.0
31/05:30pm 8.9 6.9 8.5 97 0.2 WSW 9 11 5 6 1018.9 1019.0 2.0
31/05:00pm 9.0 6.2 8.6 97 0.2 WSW 13 15 7 8 1018.8 1018.9 1.4
31/04:30pm 8.6 4.5 8.0 96 0.3 WSW 19 22 10 12 1018.8 1018.9 1.4
31/04:00pm 8.6 3.9 7.8 95 0.4 WSW 22 26 12 14 1018.8 1018.9 1.4
31/03:30pm 9.1 5.1 8.3 95 0.4 WSW 19 22 10 12 1018.9 1019.0 1.2
31/03:00pm 8.8 4.7 7.9 94 0.4 WSW 19 20 10 11 1019.2 1019.3 0.8
31/02:30pm 9.0 5.6 7.8 92 0.6 SW 15 20 8 11 1019.5 1019.6 0.0
31/02:00pm 9.1 5.3 7.5 90 0.8 SW 17 19 9 10 1019.5 1019.6 0.0
31/01:30pm 9.4 5.5 7.3 87 1.0 SSW 17 22 9 12 1019.8 1019.9 0.0
31/01:00pm 9.8 5.9 7.1 83 1.3 SSW 17 20 9 11 1020.1 1020.2 0.0
31/12:30pm 10.2 7.2 5.8 74 2.0 SSW 11 20 6 11 1020.3 1020.4 0.0
31/12:00pm 10.2 7.2 6.0 75 1.9 SW 11 15 6 8 1020.8 1020.9 0.0
31/11:30am 9.8 6.8 5.8 76 1.8 SW 11 15 6 8 1021.1 1021.2 0.0
31/11:00am 9.8 6.5 6.3 79 1.6 SW 13 15 7 8 1021.3 1021.4 0.0
31/10:30am 9.4 6.4 6.1 80 1.5 SW 11 13 6 7 1021.4 1021.5 0.0
31/10:00am 8.6 6.0 5.9 83 1.2 SW 9 11 5 6 1021.5 1021.6 0.0
31/09:30am 8.3 5.4 6.3 87 0.9 SW 11 13 6 7 1021.7 1021.8 0.0
31/09:00am 7.8 5.5 5.6 86 1.0 SW 7 9 4 5 1021.9 1022.0 0.6
31/08:30am 7.7 5.5 6.0 89 0.8 SW 7 9 4 5 1022.1 1022.2 0.6
31/08:00am 7.3 4.8 6.4 94 0.4 SW 9 11 5 6 1022.1 1022.2 0.6
31/07:30am 6.8 4.2 5.9 94 0.4 SW 9 9 5 5 1022.0 1022.1 0.6
31/07:00am 6.5 4.4 5.8 95 0.3 SW 6 6 3 3 1021.9 1022.0 0.6
31/06:30am 6.3 4.0 5.6 95 0.3 SW 7 7 4 4 1021.7 1021.8 0.6
31/06:00am 6.0 3.8 5.3 95 0.3 SW 6 6 3 3 1021.8 1021.9 0.6
31/05:30am 6.6 4.5 5.7 94 0.4 SW 6 9 3 5 1021.8 1021.9 0.6
31/05:00am 6.1 3.7 5.4 95 0.3 SW 7 9 4 5 1022.1 1022.2 0.6
31/04:30am 6.1 3.9 5.2 94 0.4 SW 6 7 3 4 1022.1 1022.2 0.6
31/04:00am 7.0 4.4 6.1 94 0.4 SW 9 11 5 6 1022.1 1022.2 0.6
31/03:30am 7.1 4.5 6.2 94 0.4 SW 9 11 5 6 1022.2 1022.3 0.6
31/03:00am 7.0 4.3 5.8 92 0.5 SW 9 13 5 7 1022.2 1022.3 0.6
31/02:30am 6.3 3.9 5.3 93 0.4 SW 7 9 4 5 1022.5 1022.6 0.6
31/02:00am 6.5 4.2 5.6 94 0.4 SW 7 9 4 5 1023.0 1023.1 0.6
31/01:30am 7.0 4.9 5.9 93 0.5 SW 6 7 3 4 1023.2 1023.3 0.4
31/01:00am 5.9 3.4 4.9 93 0.4 SW 7 7 4 4 1023.2 1023.3 0.4
31/12:30am 6.9 4.8 5.8 93 0.5 SW 6 7 3 4 1023.6 1023.7 0.4
31/12:00am 7.3 4.7 6.1 92 0.5 SW 9 13 5 7 1023.6 1023.7 0.4
 
Date/Time
EST
Temp
°C
App
Temp
°C
Dew
Point
Rel
Hum
%
Delta-T
°C
Wind Press
QNH
hPa
Press
MSL
hPa
Rain
since 9 am
mm
Dir
 
Spd
km/h
Gust
km/h
Spd
kts
Gust
kts
30/11:30pm 7.7 5.6 6.5 92 0.5 SW 7 13 4 7 1023.9 1024.0 0.4
30/11:00pm 7.6 4.6 6.2 91 0.6 SSW 11 17 6 9 1024.0 1024.1 0.4
30/10:30pm 8.3 4.5 5.9 85 1.1 SSW 15 19 8 10 1024.1 1024.2 0.4
30/10:00pm 7.8 5.6 6.1 89 0.8 SSW 7 9 4 5 1024.2 1024.3 0.4
30/09:30pm 7.9 5.7 6.0 88 0.9 SSW 7 7 4 4 1024.3 1024.4 0.4
30/09:00pm 7.9 5.7 6.0 88 0.9 SSW 7 11 4 6 1024.4 1024.5 0.4
30/08:30pm 8.0 4.2 6.0 87 0.9 SSW 15 20 8 11 1024.4 1024.5 0.4
30/08:00pm 8.1 5.5 6.1 87 0.9 SSW 9 13 5 7 1024.4 1024.5 0.4
30/07:30pm 8.0 5.1 6.5 90 0.7 SSW 11 15 6 8 1024.2 1024.3 0.4
30/07:00pm 7.7 4.8 6.6 93 0.5 SSW 11 13 6 7 1024.2 1024.3 0.4
30/06:30pm 7.7 3.3 6.5 92 0.5 SSW 19 20 10 11 1024.1 1024.2 0.4
30/06:00pm 8.3 4.2 6.1 86 1.0 SW 17 19 9 10 1023.9 1024.0 0.4
30/05:30pm 8.2 2.8 6.3 88 0.9 SW 24 28 13 15 1023.7 1023.8 0.4
30/05:00pm 9.0 5.8 5.2 77 1.7 SSW 11 17 6 9 1023.5 1023.6 0.4
30/04:30pm 9.0 5.2 5.9 81 1.4 SSW 15 19 8 10 1023.7 1023.8 0.4
30/04:00pm 8.5 5.7 6.8 89 0.8 SSW 11 17 6 9 1023.7 1023.8 0.4
30/03:30pm 8.4 4.8 6.7 89 0.8 SSW 15 24 8 13 1023.7 1023.8 0.4
30/03:00pm 8.8 4.9 7.3 90 0.7 SW 17 22 9 12 1023.8 1023.9 0.2
30/02:30pm 8.6 4.1 7.1 90 0.7 SW 20 26 11 14 1023.8 1023.9 0.2
30/02:00pm 9.4 4.0 6.5 82 1.3 SW 24 28 13 15 1023.7 1023.8 0.2
30/01:30pm 8.7 3.0 6.5 86 1.0 SSW 26 32 14 17 1023.8 1023.9 0.2
30/01:00pm 9.5 3.6 6.0 79 1.6 SSW 26 32 14 17 1023.9 1024.0 0.2
30/12:30pm 8.8 2.9 5.9 82 1.3 SSW 26 35 14 19 1024.1 1024.2 0.2
30/12:00pm 8.8 2.6 6.3 84 1.1 SW 28 35 15 19 1024.7 1024.8 0.2
30/11:30am 8.8 3.7 5.9 82 1.3 SW 22 28 12 15 1024.9 1025.0 0.2
30/11:00am 8.5 4.2 7.0 90 0.7 SSW 19 20 10 11 1025.2 1025.3 0.2
30/10:30am 7.5 2.1 6.4 93 0.5 SSW 24 30 13 16 1025.4 1025.5 0.0
30/10:00am 7.6 1.0 5.9 89 0.8 SW 30 37 16 20 1025.5 1025.6 0.0
30/09:30am 8.2 1.7 4.6 78 1.6 SSW 28 32 15 17 1025.6 1025.7 0.0
30/09:00am 8.2 1.1 3.5 72 2.0 SSW 30 35 16 19 1025.5 1025.6 0.0
30/08:30am 7.9 2.1 4.3 78 1.6 SW 24 30 13 16 1025.4 1025.5 0.0
30/08:00am 7.5 0.5 4.3 80 1.4 SSW 30 39 16 21 1025.2 1025.3 0.0
30/07:30am 7.8 1.5 3.8 76 1.7 SSW 26 32 14 17 1024.9 1025.0 0.0
30/07:00am 7.4 1.8 5.4 87 0.9 SSW 24 37 13 20 1024.7 1024.8 0.0
30/06:30am 7.3 1.6 4.8 84 1.1 SSW 24 32 13 17 1024.5 1024.6 0.0
30/06:00am 7.0 1.0 5.5 90 0.7 SSW 26 35 14 19 1024.3 1024.4 0.0
30/05:30am 7.3 0.9 5.0 85 1.0 SSW 28 32 15 17 1024.1 1024.2 0.0
30/05:00am 6.9 0.1 5.1 88 0.8 SSW 30 41 16 22 1024.0 1024.1 0.0
30/04:30am 7.5 1.7 4.6 82 1.3 SSW 24 30 13 16 1023.9 1024.0 0.0
30/04:00am 7.0 1.8 5.5 90 0.7 SW 22 28 12 15 1024.0 1024.1 0.0
30/03:30am 7.0 0.6 5.3 89 0.8 SW 28 35 15 19 1024.0 1024.1 0.0
30/03:00am 7.2 1.1 5.0 86 1.0 SSW 26 35 14 19 1024.2 1024.3 0.0
30/02:30am 7.4 0.8 4.0 79 1.5 SW 28 33 15 18 1024.4 1024.5 0.0
30/02:00am 8.1 1.3 3.0 70 2.1 SSW 28 41 15 22 1024.5 1024.6 0.0
30/01:30am 8.1 0.9 2.8 69 2.2 SW 30 33 16 18 1024.7 1024.8 0.0
30/01:00am 8.0 -0.1 3.3 72 2.0 SW 35 44 19 24 1024.8 1024.9 0.0
30/12:30am 8.1 0.5 3.0 70 2.2 SW 32 39 17 21 1024.8 1024.9 0.0
30/12:00am 8.1 -0.2 2.4 67 2.4 SSW 35 43 19 23 1024.9 1025.0 0.0
 
Date/Time
EST
Temp
°C
App
Temp
°C
Dew
Point
Rel
Hum
%
Delta-T
°C
Wind Press
QNH
hPa
Press
MSL
hPa
Rain
since 9 am
mm
Dir
 
Spd
km/h
Gust
km/h
Spd
kts
Gust
kts
29/11:30pm 8.0 0.1 2.3 67 2.4 SW 33 43 18 23 1025.0 1025.1 0.0
29/11:00pm 8.0 0.2 3.1 71 2.1 SSW 33 39 18 21 1025.1 1025.2 0.0
29/10:30pm 7.8 1.0 3.3 73 1.9 SSW 28 33 15 18 1025.1 1025.2 0.0

Other Formats:

Comma delimited format used in spreadsheet applications
http://www.bom.gov.au/fwo/IDT60801/IDT60801.94951.axf

JavaScript Object Notation format (JSON) in row-major order
http://www.bom.gov.au/fwo/IDT60801/IDT60801.94951.json